createdAt,value
2018-03-25T00:02:10.293Z,81.85
2018-03-25T00:04:37.781Z,81.33
2018-03-25T00:07:05.247Z,82.59
2018-03-25T00:09:33.032Z,82.72
2018-03-25T00:12:00.494Z,83.04
2018-03-25T00:14:27.938Z,82.78
2018-03-25T00:16:55.423Z,82.97
2018-03-25T00:19:22.869Z,82.61
2018-03-25T00:21:50.349Z,82.36
2018-03-25T00:24:17.805Z,82.26
2018-03-25T00:26:45.266Z,82.89
2018-03-25T00:29:12.726Z,83.22
2018-03-25T00:31:40.189Z,83.39
2018-03-25T00:34:07.742Z,82.89
2018-03-25T00:36:35.189Z,83.47
2018-03-25T00:39:02.657Z,83.80
2018-03-25T00:41:30.122Z,81.84
2018-03-25T00:43:57.569Z,82.31
2018-03-25T00:46:25.199Z,82.84
2018-03-25T00:48:52.657Z,82.65
2018-03-25T00:51:20.139Z,82.82
2018-03-25T00:53:47.605Z,83.26
2018-03-25T00:56:15.056Z,83.84
2018-03-25T00:58:42.750Z,81.53
2018-03-25T01:01:12.201Z,82.53
2018-03-25T01:03:39.665Z,82.92
2018-03-25T01:06:07.135Z,82.71
2018-03-25T01:08:34.577Z,81.93
2018-03-25T01:11:02.061Z,82.06
2018-03-25T01:13:29.514Z,82.69
2018-03-25T01:16:10.177Z,84.04
2018-03-25T01:18:37.635Z,85.55
2018-03-25T01:21:05.115Z,85.44
2018-03-25T01:23:32.605Z,84.66
2018-03-25T01:26:00.056Z,84.20
2018-03-25T01:28:27.529Z,84.36
2018-03-25T01:30:54.982Z,83.93
2018-03-25T01:33:22.433Z,83.74
2018-03-25T01:35:49.904Z,84.21
2018-03-25T01:38:17.370Z,83.84
2018-03-25T01:40:44.847Z,83.94
2018-03-25T01:43:12.294Z,83.73
2018-03-25T01:45:39.847Z,83.02
2018-03-25T01:48:07.328Z,82.66
2018-03-25T01:50:34.797Z,83.07
2018-03-25T01:53:02.521Z,82.93
2018-03-25T01:55:29.973Z,83.39
2018-03-25T01:57:57.470Z,83.30
2018-03-25T02:00:24.949Z,83.90
2018-03-25T02:02:52.400Z,84.02
2018-03-25T02:05:20.061Z,83.85
2018-03-25T02:07:47.552Z,84.20
2018-03-25T02:10:15.006Z,82.60
2018-03-25T02:12:42.504Z,83.56
2018-03-25T02:15:09.981Z,84.49
2018-03-25T02:17:37.488Z,84.17
2018-03-25T02:20:04.951Z,84.19
2018-03-25T02:22:32.401Z,83.84
2018-03-25T02:24:59.885Z,83.38
2018-03-25T02:27:27.340Z,82.65
2018-03-25T02:29:55.074Z,83.27
2018-03-25T02:32:22.521Z,84.24
2018-03-25T02:34:49.989Z,84.74
2018-03-25T02:37:17.497Z,84.59
2018-03-25T02:39:44.969Z,84.25
2018-03-25T02:42:12.623Z,84.69
2018-03-25T02:44:40.079Z,84.81
2018-03-25T02:47:07.530Z,84.21
2018-03-25T02:49:35.005Z,84.36
2018-03-25T02:52:02.460Z,84.08
2018-03-25T02:54:29.942Z,83.42
2018-03-25T02:56:57.404Z,83.07
2018-03-25T02:59:24.845Z,82.78
2018-03-25T03:01:52.365Z,83.44
2018-03-25T03:04:19.814Z,84.21
2018-03-25T03:06:47.289Z,85.00
2018-03-25T03:09:14.781Z,84.45
2018-03-25T03:11:42.250Z,84.81
2018-03-25T03:14:09.723Z,85.06
2018-03-25T03:16:37.180Z,84.64
2018-03-25T03:19:04.666Z,84.67
2018-03-25T03:21:32.114Z,84.62
2018-03-25T03:23:59.564Z,85.00
2018-03-25T03:26:27.949Z,84.15
2018-03-25T03:28:55.403Z,84.65
2018-03-25T03:31:22.909Z,84.80
2018-03-25T03:33:50.385Z,84.87
2018-03-25T03:36:17.857Z,84.86
2018-03-25T03:38:45.325Z,84.78
2018-03-25T03:41:12.790Z,84.59
2018-03-25T03:43:40.393Z,84.34
2018-03-25T03:46:07.989Z,84.23
2018-03-25T03:48:35.444Z,83.87
2018-03-25T03:51:02.940Z,84.31
2018-03-25T03:53:30.404Z,84.45
2018-03-25T03:55:58.078Z,85.00
2018-03-25T03:58:25.533Z,84.46
2018-03-25T04:00:52.991Z,84.76
2018-03-25T04:03:20.461Z,84.04
2018-03-25T04:05:48.089Z,83.99
2018-03-25T04:08:15.713Z,83.84
2018-03-25T04:10:43.194Z,83.70
2018-03-25T04:13:10.645Z,84.07
2018-03-25T04:15:38.137Z,83.77
2018-03-25T04:18:05.595Z,84.40
2018-03-25T04:20:33.257Z,84.59
2018-03-25T04:23:00.701Z,85.30
2018-03-25T04:25:28.165Z,84.26
2018-03-25T04:27:55.669Z,84.58
2018-03-25T04:30:23.117Z,84.61
2018-03-25T04:32:50.718Z,84.67
2018-03-25T04:35:18.169Z,84.52
2018-03-25T04:37:45.635Z,84.81
2018-03-25T04:40:13.112Z,84.58
2018-03-25T04:42:40.585Z,85.07
2018-03-25T04:45:08.110Z,84.78
2018-03-25T04:47:35.578Z,84.34
2018-03-25T04:50:03.046Z,84.12
2018-03-25T04:52:30.513Z,84.25
2018-03-25T04:54:57.964Z,84.37
2018-03-25T04:57:25.726Z,84.34
2018-03-25T04:59:53.173Z,84.01
2018-03-25T05:02:20.654Z,83.58
2018-03-25T05:04:48.130Z,83.73
2018-03-25T05:07:15.589Z,84.07
2018-03-25T05:09:43.273Z,83.70
2018-03-25T05:12:10.725Z,83.43
2018-03-25T05:14:38.175Z,83.16
2018-03-25T05:17:05.650Z,83.83
2018-03-25T05:19:33.130Z,83.78
2018-03-25T05:22:00.619Z,83.80
2018-03-25T05:24:28.069Z,83.75
2018-03-25T05:26:55.521Z,83.62
2018-03-25T05:29:23.009Z,84.13
2018-03-25T05:31:50.591Z,84.20
2018-03-25T05:34:18.385Z,83.84
2018-03-25T05:36:45.861Z,84.28
2018-03-25T05:39:13.309Z,85.43
2018-03-25T05:41:40.795Z,85.56
2018-03-25T05:44:08.247Z,84.81
2018-03-25T05:46:35.774Z,85.37
2018-03-25T05:49:03.231Z,86.03
2018-03-25T05:51:30.681Z,85.48
2018-03-25T05:53:58.230Z,84.83
2018-03-25T05:56:25.673Z,85.85
2018-03-25T05:58:53.289Z,85.66
2018-03-25T06:01:20.770Z,85.08
2018-03-25T06:03:48.209Z,84.37
2018-03-25T06:06:15.693Z,84.89
2018-03-25T06:08:43.143Z,85.21
2018-03-25T06:11:10.665Z,85.03
2018-03-25T06:13:38.126Z,85.44
2018-03-25T06:16:05.569Z,85.34
2018-03-25T06:18:33.038Z,85.20
2018-03-25T06:21:00.494Z,84.53
2018-03-25T06:23:28.211Z,84.38
2018-03-25T06:25:55.670Z,84.64
2018-03-25T06:28:23.113Z,84.61
2018-03-25T06:30:50.613Z,84.78
2018-03-25T06:33:18.078Z,84.07
2018-03-25T06:35:45.745Z,84.07
2018-03-25T06:38:13.189Z,84.18
2018-03-25T06:40:40.625Z,84.39
2018-03-25T06:43:08.196Z,84.55
2018-03-25T06:45:35.657Z,84.88
2018-03-25T06:48:03.143Z,85.05
2018-03-25T06:50:30.602Z,85.36
2018-03-25T06:52:58.101Z,85.10
2018-03-25T06:55:25.578Z,84.79
2018-03-25T06:57:53.025Z,84.64
2018-03-25T07:00:20.639Z,84.83
2018-03-25T07:02:48.119Z,84.75
2018-03-25T07:05:15.549Z,84.70
2018-03-25T07:07:43.014Z,84.13
2018-03-25T07:10:10.470Z,83.74
2018-03-25T07:12:37.965Z,84.46
2018-03-25T07:15:05.413Z,83.99
2018-03-25T07:17:32.874Z,83.75
2018-03-25T07:20:00.351Z,83.19
2018-03-25T07:22:27.862Z,82.87
2018-03-25T07:24:55.331Z,83.09
2018-03-25T07:27:22.776Z,83.12
2018-03-25T07:29:50.226Z,82.48
2018-03-25T07:32:17.690Z,82.08
2018-03-25T07:34:45.135Z,81.77
2018-03-25T07:37:12.781Z,80.44
2018-03-25T07:39:40.233Z,80.32
2018-03-25T07:42:08.233Z,79.67
2018-03-25T07:44:36.191Z,79.66
2018-03-25T07:47:04.023Z,78.99
2018-03-25T07:49:31.499Z,78.55
2018-03-25T07:51:58.945Z,77.86
2018-03-25T07:54:26.398Z,77.08
2018-03-25T07:56:53.874Z,76.93
2018-03-25T07:59:21.323Z,78.00
2018-03-25T08:01:48.891Z,77.69
2018-03-25T08:04:16.350Z,77.96
2018-03-25T08:06:43.804Z,77.97
2018-03-25T08:09:11.316Z,78.16
2018-03-25T08:11:38.749Z,78.60
2018-03-25T08:14:06.438Z,76.60
2018-03-25T08:16:33.902Z,77.41
2018-03-25T08:19:01.371Z,76.68
2018-03-25T08:21:28.893Z,76.24
2018-03-25T08:23:56.298Z,77.60
2018-03-25T08:26:23.764Z,75.40
2018-03-25T08:28:51.209Z,73.77
2018-03-25T08:31:18.652Z,74.45
2018-03-25T08:33:46.113Z,72.64
2018-03-25T08:36:13.569Z,74.92
2018-03-25T08:38:41.299Z,74.38
2018-03-25T08:41:08.765Z,73.83
2018-03-25T08:43:36.211Z,73.49
2018-03-25T08:46:03.782Z,72.16
2018-03-25T08:48:31.250Z,72.44
2018-03-25T08:50:58.848Z,71.74
2018-03-25T08:53:26.301Z,71.16
2018-03-25T08:55:53.775Z,70.20
2018-03-25T08:58:21.250Z,71.20
2018-03-25T09:00:48.774Z,70.29
2018-03-25T09:03:16.581Z,71.97
2018-03-25T09:05:44.029Z,71.33
2018-03-25T09:08:11.482Z,70.27
2018-03-25T09:10:38.949Z,70.64
2018-03-25T09:13:06.408Z,69.54
2018-03-25T09:15:34.031Z,69.81
2018-03-25T09:20:28.241Z,67.89
2018-03-25T09:22:55.730Z,67.43
2018-03-25T09:25:23.176Z,66.14
2018-03-25T09:27:50.853Z,66.62
2018-03-25T09:30:18.317Z,66.44
2018-03-25T09:32:45.777Z,65.11
2018-03-25T09:35:13.253Z,65.37
2018-03-25T09:37:40.710Z,65.52
2018-03-25T09:40:08.521Z,65.72
2018-03-25T09:42:35.970Z,65.02
2018-03-25T09:45:03.431Z,64.74
2018-03-25T09:47:30.898Z,65.00
2018-03-25T09:49:58.361Z,64.75
2018-03-25T09:52:25.989Z,64.61
2018-03-25T09:54:53.441Z,64.80
2018-03-25T09:57:20.910Z,64.30
2018-03-25T09:59:48.382Z,63.45
2018-03-25T10:02:18.781Z,62.98
2018-03-25T10:04:46.405Z,63.10
2018-03-25T10:07:13.886Z,64.08
2018-03-25T10:09:41.410Z,62.74
2018-03-25T10:12:08.879Z,62.24
2018-03-25T10:14:36.351Z,62.07
2018-03-25T10:17:03.813Z,62.22
2018-03-25T10:19:31.258Z,61.47
2018-03-25T10:21:58.842Z,61.86
2018-03-25T10:24:26.302Z,61.21
2018-03-25T10:26:53.753Z,60.21
2018-03-25T10:29:21.254Z,59.32
2018-03-25T10:31:48.705Z,59.38
2018-03-25T10:34:16.482Z,59.59
2018-03-25T10:36:43.929Z,60.14
2018-03-25T10:39:11.394Z,60.33
2018-03-25T10:41:38.935Z,59.10
2018-03-25T10:44:06.381Z,58.07
2018-03-25T10:46:33.857Z,57.89
2018-03-25T10:49:01.306Z,57.19
2018-03-25T10:51:28.762Z,57.51
2018-03-25T10:53:56.259Z,57.70
2018-03-25T10:56:23.729Z,57.31
2018-03-25T10:58:51.342Z,58.45
2018-03-25T11:01:18.792Z,59.97
2018-03-25T11:03:46.243Z,57.97
2018-03-25T11:06:13.725Z,57.75
2018-03-25T11:08:41.208Z,56.42
2018-03-25T11:11:09.125Z,56.19
2018-03-25T11:13:36.581Z,55.47
2018-03-25T11:16:04.040Z,56.19
2018-03-25T11:18:31.509Z,54.63
2018-03-25T11:20:58.988Z,54.28
2018-03-25T11:23:26.613Z,54.04
2018-03-25T11:25:54.062Z,52.08
2018-03-25T11:28:21.520Z,52.78
2018-03-25T11:30:48.993Z,51.30
2018-03-25T11:33:16.443Z,52.04
2018-03-25T11:35:43.935Z,51.19
2018-03-25T11:38:11.392Z,51.34
2018-03-25T11:40:38.878Z,51.40
2018-03-25T11:43:06.384Z,51.97
2018-03-25T11:45:33.902Z,50.48
2018-03-25T11:48:01.567Z,51.03
2018-03-25T11:50:29.016Z,50.66
2018-03-25T11:52:56.482Z,49.56
2018-03-25T11:55:23.966Z,48.51
2018-03-25T11:57:51.425Z,48.05
2018-03-25T12:00:18.937Z,47.38
2018-03-25T12:02:46.421Z,47.11
2018-03-25T12:05:13.885Z,47.21
2018-03-25T12:07:41.378Z,47.31
2018-03-25T12:10:08.869Z,46.20
2018-03-25T12:12:36.357Z,45.59
2018-03-25T12:15:03.809Z,45.78
2018-03-25T12:17:31.265Z,45.89
2018-03-25T12:19:58.757Z,44.80
2018-03-25T12:22:26.214Z,45.39
2018-03-25T12:24:53.697Z,44.86
2018-03-25T12:27:21.145Z,45.23
2018-03-25T12:29:48.603Z,45.30
2018-03-25T12:32:16.302Z,44.70
2018-03-25T12:34:43.770Z,44.67
2018-03-25T12:37:11.350Z,45.54
2018-03-25T12:39:38.803Z,45.25
2018-03-25T12:42:06.253Z,45.28
2018-03-25T12:44:33.741Z,44.99
2018-03-25T12:47:01.193Z,44.79
2018-03-25T12:49:29.006Z,44.42
2018-03-25T12:51:56.463Z,44.46
2018-03-25T12:54:23.909Z,44.09
2018-03-25T12:56:51.382Z,44.15
2018-03-25T12:59:18.837Z,43.99
2018-03-25T13:01:46.318Z,43.63
2018-03-25T13:04:13.766Z,44.42
2018-03-25T13:06:41.221Z,44.12
2018-03-25T13:09:08.863Z,43.99
2018-03-25T13:11:36.328Z,41.87
2018-03-25T13:14:04.212Z,41.80
2018-03-25T13:16:31.675Z,41.71
2018-03-25T13:18:59.129Z,42.84
2018-03-25T13:21:26.609Z,43.10
2018-03-25T13:23:54.065Z,43.67
2018-03-25T13:26:21.557Z,43.33
2018-03-25T13:28:49.042Z,42.24
2018-03-25T13:31:16.489Z,42.30
2018-03-25T13:33:43.957Z,40.42
2018-03-25T13:36:11.409Z,41.05
2018-03-25T13:38:38.889Z,41.33
2018-03-25T13:41:06.362Z,40.83
2018-03-25T13:43:33.810Z,41.36
2018-03-25T13:46:01.303Z,41.62
2018-03-25T13:48:28.768Z,41.57
2018-03-25T13:50:56.222Z,41.79
2018-03-25T13:53:23.700Z,42.22
2018-03-25T13:55:51.165Z,41.73
2018-03-25T13:58:18.658Z,42.95
2018-03-25T14:00:46.338Z,43.00
2018-03-25T14:03:13.809Z,43.50
2018-03-25T14:05:41.265Z,43.20
2018-03-25T14:08:08.882Z,43.12
2018-03-25T14:10:36.332Z,43.09
2018-03-25T14:13:03.790Z,43.68
2018-03-25T14:15:31.296Z,43.39
2018-03-25T14:17:58.772Z,43.40
2018-03-25T14:20:26.228Z,44.27
2018-03-25T14:22:53.895Z,43.67
2018-03-25T14:25:21.351Z,43.33
2018-03-25T14:27:48.818Z,42.38
2018-03-25T14:30:16.311Z,42.85
2018-03-25T14:32:43.781Z,44.27
2018-03-25T14:35:11.242Z,44.20
2018-03-25T14:37:39.013Z,43.32
2018-03-25T14:40:06.463Z,42.94
2018-03-25T14:42:33.953Z,42.87
2018-03-25T14:45:01.455Z,42.83
2018-03-25T14:47:28.925Z,42.36
2018-03-25T14:49:56.391Z,42.55
2018-03-25T14:52:23.904Z,42.36
2018-03-25T14:54:51.384Z,42.11
2018-03-25T14:57:18.869Z,42.91
2018-03-25T14:59:46.333Z,41.70
2018-03-25T15:02:13.811Z,42.30
2018-03-25T15:04:41.285Z,43.58
2018-03-25T15:07:08.751Z,43.64
2018-03-25T15:09:36.405Z,43.36
2018-03-25T15:12:03.869Z,42.43
2018-03-25T15:14:31.318Z,42.80
2018-03-25T15:16:58.793Z,42.91
2018-03-25T15:19:26.275Z,43.15
2018-03-25T15:21:54.042Z,42.85
2018-03-25T15:24:21.552Z,43.12
2018-03-25T15:26:49.006Z,43.14
2018-03-25T15:29:16.477Z,43.01
2018-03-25T15:31:43.946Z,43.93
2018-03-25T15:34:11.629Z,43.10
2018-03-25T15:36:39.119Z,43.71
2018-03-25T15:39:06.879Z,43.03
2018-03-25T15:41:34.377Z,43.49
2018-03-25T15:44:01.872Z,42.67
2018-03-25T15:46:29.373Z,42.57
2018-03-25T15:48:56.869Z,42.83
2018-03-25T15:51:24.321Z,43.48
2018-03-25T15:53:51.805Z,43.74
2018-03-25T15:56:19.266Z,43.45
2018-03-25T15:58:46.891Z,43.22
2018-03-25T16:01:14.402Z,42.77
2018-03-25T16:03:41.871Z,43.11
2018-03-25T16:06:09.351Z,43.12
2018-03-25T16:08:36.803Z,43.44
2018-03-25T16:11:04.293Z,44.16
2018-03-25T16:13:31.757Z,44.51
2018-03-25T16:15:59.205Z,43.78
2018-03-25T16:18:26.677Z,43.99
2018-03-25T16:20:54.133Z,43.33
2018-03-25T16:23:21.943Z,43.45
2018-03-25T16:25:49.428Z,44.17
2018-03-25T16:28:16.881Z,43.60
2018-03-25T16:30:44.371Z,44.09
2018-03-25T16:33:11.885Z,43.87
2018-03-25T16:35:39.381Z,44.01
2018-03-25T16:38:06.857Z,43.68
2018-03-25T16:40:34.335Z,43.72
2018-03-25T16:43:01.810Z,44.29
2018-03-25T16:45:29.288Z,45.38
2018-03-25T16:47:56.785Z,45.53
2018-03-25T16:50:24.250Z,45.02
2018-03-25T16:52:51.723Z,44.33
2018-03-25T16:55:19.215Z,44.74
2018-03-25T16:57:46.663Z,44.76
2018-03-25T17:00:14.298Z,45.36
2018-03-25T17:02:41.784Z,44.72
2018-03-25T17:05:09.258Z,45.15
2018-03-25T17:07:36.749Z,45.30
2018-03-25T17:10:04.221Z,45.99
2018-03-25T17:12:31.842Z,45.96
2018-03-25T17:15:00.268Z,47.33
2018-03-25T17:17:27.745Z,48.22
2018-03-25T17:19:55.227Z,47.46
2018-03-25T17:22:22.705Z,47.45
2018-03-25T17:24:50.520Z,48.73
2018-03-25T17:27:18.021Z,49.11
2018-03-25T17:29:45.487Z,49.82
2018-03-25T17:32:12.990Z,49.51
2018-03-25T17:34:40.449Z,51.02
2018-03-25T17:37:07.933Z,52.34
2018-03-25T17:39:35.390Z,48.96
2018-03-25T17:42:02.849Z,49.61
2018-03-25T17:44:30.331Z,50.12
2018-03-25T17:46:57.786Z,50.78
2018-03-25T17:49:25.649Z,50.84
2018-03-25T17:51:53.146Z,51.59
2018-03-25T17:54:20.610Z,51.60
2018-03-25T17:56:48.174Z,52.36
2018-03-25T17:59:15.656Z,52.32
2018-03-25T18:01:43.166Z,53.85
2018-03-25T18:04:10.651Z,55.32
2018-03-25T18:06:38.122Z,56.29
2018-03-25T18:09:06.561Z,55.94
2018-03-25T18:11:34.029Z,55.98
2018-03-25T18:14:01.549Z,55.84
2018-03-25T18:16:29.022Z,55.18
2018-03-25T18:18:56.478Z,54.61
2018-03-25T18:21:23.953Z,54.21
2018-03-25T18:23:51.410Z,53.28
2018-03-25T18:26:19.039Z,53.10
2018-03-25T18:28:46.512Z,52.42
2018-03-25T18:31:14.003Z,52.44
2018-03-25T18:33:41.494Z,52.87
2018-03-25T18:36:08.964Z,53.09
2018-03-25T18:38:36.676Z,52.72
2018-03-25T18:41:04.133Z,52.78
2018-03-25T18:43:31.597Z,52.76
2018-03-25T18:45:59.078Z,52.31
2018-03-25T18:48:26.559Z,52.45
2018-03-25T18:50:54.197Z,54.06
2018-03-25T18:53:21.658Z,53.33
2018-03-25T18:55:49.147Z,54.55
2018-03-25T18:58:16.681Z,56.92
2018-03-25T19:00:44.132Z,59.10
2018-03-25T19:03:11.613Z,58.97
2018-03-25T19:05:39.073Z,59.66
2018-03-25T19:08:06.528Z,60.77
2018-03-25T19:10:34.005Z,61.36
2018-03-25T19:13:01.468Z,61.49
2018-03-25T19:15:29.140Z,62.83
2018-03-25T19:17:56.586Z,64.15
2018-03-25T19:20:24.033Z,64.50
2018-03-25T19:22:51.501Z,65.20
2018-03-25T19:25:18.950Z,65.71
2018-03-25T19:27:46.650Z,65.91
2018-03-25T19:30:14.106Z,66.82
2018-03-25T19:32:41.557Z,66.72
2018-03-25T19:35:09.026Z,66.87
2018-03-25T19:37:36.478Z,66.84
2018-03-25T19:40:04.090Z,67.66
2018-03-25T19:42:31.553Z,67.87
2018-03-25T19:44:59.001Z,68.20
2018-03-25T19:47:26.485Z,67.96
2018-03-25T19:49:53.946Z,68.03
2018-03-25T19:52:22.121Z,68.59
2018-03-25T19:54:49.595Z,69.08
2018-03-25T19:57:17.050Z,69.18
2018-03-25T19:59:44.529Z,69.50
2018-03-25T20:02:12.006Z,70.14
2018-03-25T20:04:39.817Z,70.12
2018-03-25T20:07:07.274Z,70.76
2018-03-25T20:09:34.720Z,70.61
2018-03-25T20:12:02.187Z,71.49
2018-03-25T20:14:29.711Z,71.32
2018-03-25T20:16:57.291Z,70.63
2018-03-25T20:19:24.753Z,70.82
2018-03-25T20:21:52.201Z,72.00
2018-03-25T20:24:19.665Z,72.58
2018-03-25T20:26:47.126Z,72.46
2018-03-25T20:29:14.881Z,72.52
2018-03-25T20:31:42.329Z,72.91
2018-03-25T20:34:09.794Z,72.81
2018-03-25T20:36:37.281Z,72.39
2018-03-25T20:39:04.742Z,72.65
2018-03-25T20:41:32.384Z,73.25
2018-03-25T20:43:59.825Z,73.50
2018-03-25T20:46:27.277Z,74.19
2018-03-25T20:48:54.757Z,74.00
2018-03-25T20:51:22.211Z,73.87
2018-03-25T20:53:49.923Z,73.94
2018-03-25T20:56:17.366Z,73.81
2018-03-25T20:58:44.813Z,74.18
2018-03-25T21:01:12.282Z,74.17
2018-03-25T21:03:39.734Z,73.99
2018-03-25T21:06:07.284Z,74.21
2018-03-25T21:08:34.729Z,74.19
2018-03-25T21:11:02.185Z,74.23
2018-03-25T21:13:29.674Z,73.95
2018-03-25T21:15:57.117Z,74.72
2018-03-25T21:18:24.601Z,74.68
2018-03-25T21:20:52.053Z,75.16
2018-03-25T21:23:19.506Z,75.87
2018-03-25T21:25:46.986Z,76.20
2018-03-25T21:28:14.429Z,76.39
2018-03-25T21:30:42.074Z,76.81
2018-03-25T21:33:09.518Z,76.00
2018-03-25T21:35:37.075Z,76.94
2018-03-25T21:38:04.538Z,76.83
2018-03-25T21:40:32.000Z,76.41
2018-03-25T21:42:59.474Z,75.72
2018-03-25T21:45:26.924Z,75.60
2018-03-25T21:47:54.372Z,76.35
2018-03-25T21:50:21.844Z,75.73
2018-03-25T21:52:49.335Z,76.39
2018-03-25T21:55:16.985Z,78.25
2018-03-25T21:57:44.471Z,78.68
2018-03-25T22:00:11.950Z,77.39
2018-03-25T22:02:39.428Z,77.10
2018-03-25T22:05:06.911Z,76.92
2018-03-25T22:07:34.657Z,76.01
2018-03-25T22:10:02.116Z,75.90
2018-03-25T22:12:29.586Z,75.94
2018-03-25T22:14:57.056Z,75.87
2018-03-25T22:17:24.514Z,75.79
2018-03-25T22:19:52.228Z,76.25
2018-03-25T22:22:19.683Z,77.65
2018-03-25T22:24:47.134Z,76.59
2018-03-25T22:27:14.601Z,76.66
2018-03-25T22:29:42.070Z,76.41
2018-03-25T22:32:09.780Z,76.67
2018-03-25T22:34:37.197Z,76.77
2018-03-25T22:37:04.663Z,76.79
2018-03-25T22:39:32.139Z,76.75
2018-03-25T22:41:59.585Z,76.71
2018-03-25T22:44:27.409Z,76.75
2018-03-25T22:46:54.857Z,77.10
2018-03-25T22:49:22.298Z,76.99
2018-03-25T22:51:49.757Z,77.87
2018-03-25T22:54:17.201Z,77.46
2018-03-25T22:56:44.838Z,77.08
2018-03-25T22:59:12.281Z,77.86
2018-03-25T23:01:39.729Z,77.22
2018-03-25T23:04:07.205Z,77.08
2018-03-25T23:06:34.657Z,76.72
2018-03-25T23:09:02.496Z,76.56
2018-03-25T23:11:29.942Z,76.51
2018-03-25T23:13:57.389Z,77.04
2018-03-25T23:16:24.885Z,77.17
2018-03-25T23:18:52.342Z,78.02
2018-03-25T23:21:20.051Z,77.62
2018-03-25T23:23:47.510Z,77.30
2018-03-25T23:26:14.973Z,78.22
2018-03-25T23:28:42.445Z,78.31
2018-03-25T23:31:09.889Z,78.48
2018-03-25T23:33:37.369Z,78.79
2018-03-25T23:36:04.825Z,78.52
2018-03-25T23:38:32.290Z,78.31
2018-03-25T23:40:59.783Z,77.71
2018-03-25T23:43:27.228Z,78.48
2018-03-25T23:45:54.865Z,78.72
2018-03-25T23:48:22.325Z,79.40
2018-03-25T23:50:49.766Z,78.91
2018-03-25T23:53:17.256Z,79.00
2018-03-25T23:55:44.697Z,78.86
2018-03-25T23:58:12.173Z,78.96
